Portada
METAR-TAF:

METAR-TAF

Aeroports :

L'Havana, Cuba

latitud: 22-59N, longitud: 082-24W, altitud: 59 m

Observació

L'informe es va fer fa 20 minuts, a les 19:55 UTC
Vent 11 kt del Nord, variant entre Nord-Oest i Est/Nord-Est
Temperatura 32°C
Humitat 67%
Pressió 1016 hPa
Visibilitat: 9000 m
Núvols disperses a una alçada de 3500 ft

METAR: MUHA 201955Z 35011KT 320V060 9000 SCT035 32/25 Q1016

Hora: 16:15 (20:15 UTC)

Pronòstic

L'informe es va fer fa 3 hores i 15 minuts, a les 17:00 UTC
Pronòstic vàlid del 20 a les 18 UTC al 21 a les 18 UTC
Vent 7 kt del Nord/Nord-Est
Visibilitat: 9000 m
Núvols disperses a una alçada de 3000 ft

TAF: MUHA 201700Z 2018/2118 03007KT 9000 SCT030

Observacions i pronòstics meteorològics de més de 4000 aeroports (METAR i TAF).

Les estacions disponibles són els punts grocs i vermells al mapa.

Posi el ratolí al punt desitjat per veure el nom de l'estació.

Feu clic per veure les observacions i els pronòstics meteorològics.

Per canviar el mapa: feu clic els botons verds amb una creu de color negre per apropar; al botó verd amb un guió per allunyar la imatge; o en les fletxes verdes per a mapes adjacents.


METAR-TAF: